createdAt,value
2023-01-02T00:00:06.268Z,97169.72
2023-01-02T00:02:32.719Z,97175.66
2023-01-02T00:04:59.189Z,97152.28
2023-01-02T00:07:25.543Z,97171.22
2023-01-02T00:09:51.869Z,97159.59
2023-01-02T00:12:18.315Z,97160.06
2023-01-02T00:14:44.683Z,97164.66
2023-01-02T00:17:11.031Z,97174.16
2023-01-02T00:19:37.384Z,97165.84
2023-01-02T00:22:03.723Z,97150.41
2023-01-02T00:24:30.079Z,97142.59
2023-01-02T00:26:56.436Z,97146.44
2023-01-02T00:29:22.797Z,97155.31
2023-01-02T00:31:49.173Z,97161.59
2023-01-02T00:34:15.729Z,97160.91
2023-01-02T00:36:42.071Z,97153.69
2023-01-02T00:39:08.457Z,97141.72
2023-01-02T00:41:34.807Z,97145.06
2023-01-02T00:44:01.266Z,97145.69
2023-01-02T00:46:27.732Z,97147.53
2023-01-02T00:48:54.117Z,97147.06
2023-01-02T00:51:20.560Z,97143.38
2023-01-02T00:53:46.913Z,97137.25
2023-01-02T00:56:13.251Z,97139.38
2023-01-02T00:58:39.623Z,97138.03
2023-01-02T01:01:06.111Z,97139.66
2023-01-02T01:03:32.829Z,97118.88
2023-01-02T01:05:59.189Z,97127.28
2023-01-02T01:08:25.589Z,97135.44
2023-01-02T01:10:51.974Z,97129.34
2023-01-02T01:13:18.324Z,97128.59
2023-01-02T01:15:44.737Z,97125.34
2023-01-02T01:18:11.110Z,97112.06
2023-01-02T01:20:39.121Z,97109.47
2023-01-02T01:23:05.524Z,97118.56
2023-01-02T01:25:31.868Z,97109.72
2023-01-02T01:27:58.225Z,97117.53
2023-01-02T01:30:24.579Z,97112.50
2023-01-02T01:32:50.932Z,97112.94
2023-01-02T01:35:17.275Z,97110.03
2023-01-02T01:37:43.638Z,97121.06
2023-01-02T01:40:10.292Z,97118.59
2023-01-02T01:42:36.787Z,97124.88
2023-01-02T01:45:04.140Z,97114.47
2023-01-02T01:47:48.901Z,97101.16
2023-01-02T01:50:35.515Z,97111.56
2023-01-02T01:53:13.894Z,97122.28
2023-01-02T01:55:52.930Z,97129.94
2023-01-02T01:58:24.737Z,97138.19
2023-01-02T02:00:51.821Z,97122.59
2023-01-02T02:03:24.688Z,97129.94
2023-01-02T02:05:51.190Z,97122.28
2023-01-02T02:08:27.910Z,97127.03
2023-01-02T02:10:57.221Z,97126.72
2023-01-02T02:13:23.708Z,97113.09
2023-01-02T02:16:08.756Z,97111.44
2023-01-02T02:19:24.441Z,97103.47
2023-01-02T02:22:12.297Z,97107.44
2023-01-02T02:25:24.041Z,97106.22
2023-01-02T02:28:27.632Z,97094.13
2023-01-02T02:31:09.279Z,97103.91
2023-01-02T02:33:47.971Z,97085.41
2023-01-02T02:36:26.722Z,97092.56
2023-01-02T02:39:17.224Z,97100.38
2023-01-02T02:42:14.483Z,97087.56
2023-01-02T02:45:04.759Z,97089.41
2023-01-02T02:47:41.129Z,97080.78
2023-01-02T02:50:17.022Z,97086.94
2023-01-02T02:52:49.906Z,97081.44
2023-01-02T02:55:24.290Z,97072.53
2023-01-02T02:57:51.673Z,97080.34
2023-01-02T03:00:22.310Z,97065.34
2023-01-02T03:02:49.088Z,97065.94
2023-01-02T03:05:37.242Z,97073.88
2023-01-02T03:08:11.417Z,97082.47
2023-01-02T03:10:56.458Z,97081.72
2023-01-02T03:13:42.174Z,97074.09
2023-01-02T03:16:17.923Z,97074.09
2023-01-02T03:18:55.850Z,97070.09
2023-01-02T03:21:40.936Z,97067.03
2023-01-02T03:24:10.976Z,97052.50
2023-01-02T03:26:42.332Z,97061.53
2023-01-02T03:29:21.021Z,97064.59
2023-01-02T03:31:53.956Z,97084.31
2023-01-02T03:34:25.368Z,97082.50
2023-01-02T03:36:58.163Z,97089.22
2023-01-02T03:39:29.080Z,97090.28
2023-01-02T03:41:59.104Z,97073.75
2023-01-02T03:44:34.599Z,97081.09
2023-01-02T03:47:32.159Z,97078.19
2023-01-02T03:50:05.208Z,97080.34
2023-01-02T03:52:31.705Z,97076.72
2023-01-02T03:55:00.251Z,97080.22
2023-01-02T03:58:00.259Z,97092.16
2023-01-02T04:00:36.629Z,97078.69
2023-01-02T04:03:38.910Z,97090.13
2023-01-02T04:06:15.630Z,97079.91
2023-01-02T04:08:47.938Z,97073.66
2023-01-02T04:11:18.069Z,97078.38
2023-01-02T04:13:50.570Z,97091.69
2023-01-02T04:16:22.025Z,97090.75
2023-01-02T04:18:54.851Z,97097.38
2023-01-02T04:21:25.135Z,97092.59
2023-01-02T04:23:59.321Z,97101.78
2023-01-02T04:26:32.279Z,97102.88
2023-01-02T04:28:59.752Z,97101.44
2023-01-02T04:31:34.968Z,97103.59
2023-01-02T04:34:03.418Z,97099.94
2023-01-02T04:36:29.873Z,97092.88
2023-01-02T04:38:56.232Z,97106.03
2023-01-02T04:41:28.549Z,97111.69
2023-01-02T04:43:56.358Z,97120.06
2023-01-02T04:46:24.529Z,97115.03
2023-01-02T04:48:51.024Z,97109.38
2023-01-02T04:51:17.611Z,97112.28
2023-01-02T04:53:46.941Z,97103.59
2023-01-02T04:56:13.359Z,97109.25
2023-01-02T04:58:41.623Z,97117.41
2023-01-02T05:01:09.374Z,97114.19
2023-01-02T05:03:39.482Z,97112.66
2023-01-02T05:06:06.536Z,97111.66
2023-01-02T05:08:32.887Z,97102.47
2023-01-02T05:11:08.811Z,97092.94
2023-01-02T05:13:35.148Z,97102.59
2023-01-02T05:16:01.660Z,97107.03
2023-01-02T05:18:29.169Z,97108.13
2023-01-02T05:21:06.509Z,97101.50
2023-01-02T05:23:50.970Z,97118.75
2023-01-02T05:26:17.860Z,97107.88
2023-01-02T05:28:44.641Z,97117.22
2023-01-02T05:31:12.020Z,97118.28
2023-01-02T05:33:38.529Z,97120.00
2023-01-02T05:36:08.732Z,97125.19
2023-01-02T05:38:36.431Z,97134.56
2023-01-02T05:41:07.570Z,97130.22
2023-01-02T05:43:35.804Z,97120.13
2023-01-02T05:46:15.414Z,97127.91
2023-01-02T05:48:42.299Z,97121.94
2023-01-02T05:51:10.642Z,97118.78
2023-01-02T05:53:37.813Z,97130.22
2023-01-02T05:56:15.483Z,97136.94
2023-01-02T05:58:46.725Z,97136.47
2023-01-02T06:01:19.180Z,97132.22
2023-01-02T06:03:59.067Z,97117.81
2023-01-02T06:06:30.504Z,97119.22
2023-01-02T06:08:58.785Z,97134.22
2023-01-02T06:11:25.296Z,97129.13
2023-01-02T06:13:52.503Z,97144.75
2023-01-02T06:16:18.891Z,97134.81
2023-01-02T06:18:45.349Z,97142.47
2023-01-02T06:21:14.539Z,97139.88
2023-01-02T06:23:42.090Z,97134.50
2023-01-02T06:26:19.326Z,97140.28
2023-01-02T06:28:48.707Z,97136.75
2023-01-02T06:31:16.891Z,97133.69
2023-01-02T06:33:43.732Z,97131.34
2023-01-02T06:36:12.926Z,97128.31
2023-01-02T06:38:39.505Z,97150.09
2023-01-02T06:41:07.675Z,97136.19
2023-01-02T06:43:35.344Z,97123.50
2023-01-02T06:46:04.248Z,97128.09
2023-01-02T06:48:34.418Z,97138.94
2023-01-02T06:51:04.093Z,97144.50
2023-01-02T06:53:32.656Z,97141.91
2023-01-02T06:55:59.117Z,97146.03
2023-01-02T06:58:29.460Z,97132.06
2023-01-02T07:00:55.922Z,97120.09
2023-01-02T07:03:22.364Z,97138.66
2023-01-02T07:05:48.725Z,97152.41
2023-01-02T07:08:15.098Z,97148.47
2023-01-02T07:10:41.452Z,97143.13
2023-01-02T07:13:07.845Z,97144.16
2023-01-02T07:15:34.211Z,97130.34
2023-01-02T07:18:00.579Z,97135.03
2023-01-02T07:20:27.054Z,97129.66
2023-01-02T07:22:54.518Z,97122.34
2023-01-02T07:25:22.035Z,97147.50
2023-01-02T07:27:48.428Z,97156.06
2023-01-02T07:30:14.953Z,97152.28
2023-01-02T07:32:41.398Z,97145.25
2023-01-02T07:35:08.395Z,97144.03
2023-01-02T07:37:34.764Z,97128.25
2023-01-02T07:40:01.252Z,97151.81
2023-01-02T07:42:28.069Z,97157.03
2023-01-02T07:44:54.408Z,97160.69
2023-01-02T07:47:20.838Z,97154.13
2023-01-02T07:49:47.193Z,97164.06
2023-01-02T07:52:13.578Z,97169.28
2023-01-02T07:54:39.998Z,97163.16
2023-01-02T07:57:06.345Z,97152.44
2023-01-02T07:59:32.757Z,97153.97
2023-01-02T08:01:59.222Z,97171.28
2023-01-02T08:04:25.692Z,97158.56
2023-01-02T08:06:52.153Z,97184.25
2023-01-02T08:09:18.569Z,97178.88
2023-01-02T08:11:44.951Z,97190.81
2023-01-02T08:14:11.310Z,97210.22
2023-01-02T08:16:37.681Z,97212.06
2023-01-02T08:19:04.068Z,97198.91
2023-01-02T08:21:30.477Z,97218.03
2023-01-02T08:23:56.838Z,97201.19
2023-01-02T08:26:23.965Z,97215.88
2023-01-02T08:28:50.328Z,97223.84
2023-01-02T08:31:20.821Z,97221.25
2023-01-02T08:33:47.252Z,97230.28
2023-01-02T08:36:14.807Z,97226.50
2023-01-02T08:38:41.652Z,97213.78
2023-01-02T08:41:08.602Z,97219.16
2023-01-02T08:43:36.155Z,97221.94
2023-01-02T08:46:07.260Z,97232.19
2023-01-02T08:48:34.749Z,97235.09
2023-01-02T08:51:01.876Z,97236.03
2023-01-02T08:53:28.224Z,97227.63
2023-01-02T08:55:54.623Z,97228.09
2023-01-02T08:58:21.151Z,97241.41
2023-01-02T09:00:47.496Z,97238.34
2023-01-02T09:03:13.892Z,97240.50
2023-01-02T09:05:40.286Z,97251.19
2023-01-02T09:08:06.641Z,97242.78
2023-01-02T09:10:33.005Z,97243.56
2023-01-02T09:12:59.390Z,97247.06
2023-01-02T09:15:25.830Z,97251.81
2023-01-02T09:17:52.245Z,97265.91
2023-01-02T09:20:18.605Z,97269.44
2023-01-02T09:22:44.995Z,97264.22
2023-01-02T09:25:11.361Z,97266.84
2023-01-02T09:27:37.707Z,97265.75
2023-01-02T09:30:04.492Z,97287.50
2023-01-02T09:32:30.835Z,97285.34
2023-01-02T09:34:57.221Z,97285.06
2023-01-02T09:37:23.559Z,97273.41
2023-01-02T09:39:50.385Z,97279.22
2023-01-02T09:42:17.132Z,97280.47
2023-01-02T09:44:49.849Z,97297.31
2023-01-02T09:47:24.155Z,97289.63
2023-01-02T09:49:56.641Z,97289.28
2023-01-02T09:52:27.099Z,97299.69
2023-01-02T09:54:53.699Z,97288.38
2023-01-02T09:57:29.504Z,97316.72
2023-01-02T10:00:18.476Z,97328.50
2023-01-02T10:03:07.383Z,97330.94
2023-01-02T10:06:09.552Z,97323.09
2023-01-02T10:08:47.232Z,97324.94
2023-01-02T10:11:33.963Z,97328.75
2023-01-02T10:14:24.078Z,97337.31
2023-01-02T10:16:56.104Z,97322.63
2023-01-02T10:19:41.880Z,97326.91
2023-01-02T10:22:12.297Z,97322.78
2023-01-02T10:24:51.928Z,97324.78
2023-01-02T10:27:24.046Z,97324.97
2023-01-02T10:30:29.291Z,97334.31
2023-01-02T10:33:05.301Z,97331.72
2023-01-02T10:35:48.032Z,97328.09
2023-01-02T10:38:17.049Z,97323.75
2023-01-02T10:40:46.452Z,97328.84
2023-01-02T10:43:14.752Z,97330.09
2023-01-02T10:45:42.595Z,97332.84
2023-01-02T10:48:12.877Z,97323.19
2023-01-02T10:50:50.250Z,97322.59
2023-01-02T10:53:33.306Z,97306.19
2023-01-02T10:56:25.829Z,97321.66
2023-01-02T10:58:53.083Z,97315.22
2023-01-02T11:01:21.553Z,97320.75
2023-01-02T11:03:53.845Z,97320.00
2023-01-02T11:06:30.161Z,97327.34
2023-01-02T11:09:12.836Z,97324.25
2023-01-02T11:11:49.206Z,97324.09
2023-01-02T11:14:15.776Z,97312.59
2023-01-02T11:16:42.291Z,97317.47
2023-01-02T11:19:20.415Z,97327.00
2023-01-02T11:21:49.062Z,97316.38
2023-01-02T11:24:25.779Z,97322.53
2023-01-02T11:26:53.239Z,97300.00
2023-01-02T11:29:32.568Z,97310.09
2023-01-02T11:32:02.045Z,97318.38
2023-01-02T11:34:37.981Z,97311.00
2023-01-02T11:37:25.319Z,97314.38
2023-01-02T11:40:06.813Z,97307.50
2023-01-02T11:43:00.970Z,97314.03
2023-01-02T11:45:27.980Z,97298.13
2023-01-02T11:48:00.428Z,97310.25
2023-01-02T11:50:33.813Z,97309.94
2023-01-02T11:53:20.286Z,97319.09
2023-01-02T11:55:51.595Z,97325.25
2023-01-02T11:58:47.206Z,97323.75
2023-01-02T12:01:13.541Z,97341.97
2023-01-02T12:03:40.472Z,97343.97
2023-01-02T12:06:15.690Z,97350.03
2023-01-02T12:09:00.721Z,97351.00
2023-01-02T12:12:01.845Z,97353.88
2023-01-02T12:14:40.508Z,97357.13
2023-01-02T12:17:20.284Z,97339.91
2023-01-02T12:19:52.846Z,97346.03
2023-01-02T12:22:49.048Z,97354.28
2023-01-02T12:25:41.601Z,97346.81
2023-01-02T12:28:37.215Z,97342.78
2023-01-02T12:31:41.111Z,97355.38
2023-01-02T12:34:27.168Z,97353.97
2023-01-02T12:37:01.325Z,97352.97
2023-01-02T12:40:11.960Z,97368.25
2023-01-02T12:42:59.794Z,97362.06
2023-01-02T12:45:36.095Z,97352.88
2023-01-02T12:48:21.226Z,97357.84
2023-01-02T12:51:02.772Z,97363.63
2023-01-02T12:54:18.624Z,97366.59
2023-01-02T12:57:07.784Z,97369.81
2023-01-02T12:59:49.362Z,97365.25
2023-01-02T13:02:34.196Z,97367.28
2023-01-02T13:05:07.334Z,97360.59
2023-01-02T13:07:40.209Z,97362.06
2023-01-02T13:10:07.239Z,97374.97
2023-01-02T13:12:35.710Z,97375.34
2023-01-02T13:15:09.683Z,97374.69
2023-01-02T13:17:51.226Z,97381.97
2023-01-02T13:20:42.862Z,97378.34
2023-01-02T13:23:35.573Z,97384.41
2023-01-02T13:26:12.862Z,97378.91
2023-01-02T13:28:43.098Z,97367.69
2023-01-02T13:31:44.897Z,97375.50
2023-01-02T13:34:05.399Z,97359.84
2023-01-02T13:37:04.591Z,97367.31
2023-01-02T13:39:46.773Z,97368.31
2023-01-02T13:42:53.913Z,97375.69
2023-01-02T13:45:25.485Z,97370.09
2023-01-02T13:47:58.028Z,97372.91
2023-01-02T13:50:34.275Z,97372.63
2023-01-02T13:53:09.714Z,97405.78
2023-01-02T13:55:42.307Z,97418.38
2023-01-02T13:58:18.014Z,97420.91
2023-01-02T14:00:53.929Z,97415.91
2023-01-02T14:03:24.276Z,97409.53
2023-01-02T14:06:00.407Z,97412.81
2023-01-02T14:08:35.656Z,97393.59
2023-01-02T14:11:10.169Z,97395.06
2023-01-02T14:13:46.227Z,97385.34
2023-01-02T14:16:34.325Z,97398.00
2023-01-02T14:19:12.683Z,97404.75
2023-01-02T14:21:53.550Z,97419.06
2023-01-02T14:24:29.919Z,97422.72
2023-01-02T14:27:00.889Z,97412.72
2023-01-02T14:29:29.314Z,97416.38
2023-01-02T14:32:22.170Z,97446.63
2023-01-02T14:34:53.086Z,97443.56
2023-01-02T14:37:29.724Z,97429.22
2023-01-02T14:39:56.111Z,97439.03
2023-01-02T14:42:51.974Z,97431.66
2023-01-02T14:45:21.043Z,97431.44
2023-01-02T14:48:00.543Z,97434.31
2023-01-02T14:50:30.668Z,97428.72
2023-01-02T14:53:10.025Z,97433.63
2023-01-02T14:55:42.242Z,97435.81
2023-01-02T14:58:24.721Z,97441.22
2023-01-02T15:00:51.556Z,97440.72
2023-01-02T15:03:29.945Z,97448.88
2023-01-02T15:06:12.504Z,97475.56
2023-01-02T15:08:46.551Z,97482.56
2023-01-02T15:11:40.643Z,97494.19
2023-01-02T15:14:12.967Z,97495.53
2023-01-02T15:16:50.071Z,97483.63
2023-01-02T15:19:25.171Z,97476.06
2023-01-02T15:21:51.581Z,97507.25
2023-01-02T15:24:21.256Z,97518.16
2023-01-02T15:26:47.700Z,97515.31
2023-01-02T15:29:23.624Z,97535.53
2023-01-02T15:31:58.622Z,97546.06
2023-01-02T15:34:30.133Z,97548.88
2023-01-02T15:37:02.072Z,97543.06
2023-01-02T15:39:33.900Z,97554.13
2023-01-02T15:42:04.157Z,97551.88
2023-01-02T15:44:54.469Z,97544.69
2023-01-02T15:47:27.646Z,97558.91
2023-01-02T15:49:56.254Z,97555.91
2023-01-02T15:52:30.208Z,97558.84
2023-01-02T15:54:57.388Z,97565.56
2023-01-02T15:57:28.259Z,97567.31
2023-01-02T15:59:55.104Z,97549.31
2023-01-02T16:02:44.805Z,97548.22
2023-01-02T16:05:18.798Z,97559.59
2023-01-02T16:07:50.830Z,97547.28
2023-01-02T16:10:20.727Z,97551.41
2023-01-02T16:12:56.562Z,97540.34
2023-01-02T16:15:29.510Z,97556.03
2023-01-02T16:17:56.786Z,97539.16
2023-01-02T16:20:25.335Z,97537.03
2023-01-02T16:23:07.739Z,97540.25
2023-01-02T16:25:36.753Z,97538.72
2023-01-02T16:28:34.810Z,97551.72
2023-01-02T16:31:16.106Z,97565.25
2023-01-02T16:33:43.973Z,97597.34
2023-01-02T16:36:13.036Z,97596.56
2023-01-02T16:39:00.392Z,97608.31
2023-01-02T16:41:35.059Z,97636.72
2023-01-02T16:44:12.304Z,97611.50
2023-01-02T16:46:39.653Z,97639.81
2023-01-02T16:49:06.448Z,97630.22
2023-01-02T16:51:33.356Z,97638.81
2023-01-02T16:53:59.723Z,97641.31
2023-01-02T16:56:26.128Z,97644.69
2023-01-02T16:58:52.592Z,97663.47
2023-01-02T17:01:22.551Z,97656.78
2023-01-02T17:03:49.077Z,97666.13
2023-01-02T17:06:18.161Z,97683.84
2023-01-02T17:08:45.081Z,97677.88
2023-01-02T17:11:16.059Z,97673.06
2023-01-02T17:13:42.569Z,97683.41
2023-01-02T17:16:09.065Z,97675.75
2023-01-02T17:18:35.598Z,97695.38
2023-01-02T17:21:02.011Z,97683.28
2023-01-02T17:23:28.391Z,97700.09
2023-01-02T17:25:54.764Z,97706.53
2023-01-02T17:28:21.138Z,97708.66
2023-01-02T17:30:51.616Z,97709.69
2023-01-02T17:33:18.056Z,97699.91
2023-01-02T17:35:48.763Z,97715.38
2023-01-02T17:38:15.419Z,97726.22
2023-01-02T17:40:41.820Z,97721.31
2023-01-02T17:43:08.172Z,97732.25
2023-01-02T17:45:34.556Z,97714.00
2023-01-02T17:48:07.882Z,97742.91
2023-01-02T17:50:36.713Z,97749.34
2023-01-02T17:53:03.074Z,97763.63
2023-01-02T17:55:29.438Z,97763.56
2023-01-02T17:57:55.961Z,97756.09
2023-01-02T18:00:23.368Z,97766.88
2023-01-02T18:02:51.388Z,97759.72
2023-01-02T18:05:17.892Z,97766.97
2023-01-02T18:07:44.218Z,97769.88
2023-01-02T18:10:13.536Z,97788.28
2023-01-02T18:12:43.836Z,97775.13
2023-01-02T18:15:12.835Z,97781.66
2023-01-02T18:17:39.286Z,97791.44
2023-01-02T18:20:10.488Z,97783.94
2023-01-02T18:22:38.215Z,97791.44
2023-01-02T18:25:15.868Z,97790.94
2023-01-02T18:27:42.206Z,97802.78
2023-01-02T18:30:14.760Z,97811.06
2023-01-02T18:32:42.727Z,97813.69
2023-01-02T18:35:55.557Z,97814.72
2023-01-02T18:38:24.264Z,97814.72
2023-01-02T18:40:53.068Z,97805.69
2023-01-02T18:43:37.468Z,97818.38
2023-01-02T18:46:22.287Z,97825.13
2023-01-02T18:48:48.844Z,97825.91
2023-01-02T18:51:23.144Z,97826.41
2023-01-02T18:53:52.163Z,97836.28
2023-01-02T18:56:23.818Z,97835.44
2023-01-02T18:59:00.976Z,97846.78
2023-01-02T19:01:34.847Z,97853.06
2023-01-02T19:04:22.485Z,97854.91
2023-01-02T19:06:55.798Z,97843.31
2023-01-02T19:09:28.104Z,97847.19
2023-01-02T19:12:37.944Z,97863.72
2023-01-02T19:15:31.173Z,97875.69
2023-01-02T19:18:01.441Z,97860.94
2023-01-02T19:20:27.787Z,97882.66
2023-01-02T19:22:54.178Z,97876.19
2023-01-02T19:25:23.751Z,97888.56
2023-01-02T19:27:53.920Z,97869.75
2023-01-02T19:30:30.891Z,97888.59
2023-01-02T19:32:58.027Z,97886.81
2023-01-02T19:35:24.315Z,97903.09
2023-01-02T19:37:50.721Z,97907.25
2023-01-02T19:40:20.769Z,97899.78
2023-01-02T19:42:51.791Z,97900.06
2023-01-02T19:45:23.880Z,97901.91
2023-01-02T19:47:51.320Z,97921.03
2023-01-02T19:50:24.113Z,97924.66
2023-01-02T19:52:50.567Z,97921.56
2023-01-02T19:55:18.306Z,97919.50
2023-01-02T19:57:46.597Z,97926.50
2023-01-02T20:00:15.360Z,97934.25
2023-01-02T20:02:45.203Z,97942.28
2023-01-02T20:05:14.823Z,97928.56
2023-01-02T20:07:44.821Z,97940.47
2023-01-02T20:10:12.065Z,97929.63
2023-01-02T20:12:41.556Z,97932.22
2023-01-02T20:15:28.706Z,97949.03
2023-01-02T20:17:55.643Z,97947.47
2023-01-02T20:20:24.938Z,97944.63
2023-01-02T20:22:52.161Z,97947.50
2023-01-02T20:25:23.683Z,97947.72
2023-01-02T20:27:50.801Z,97949.03
2023-01-02T20:30:23.702Z,97950.84
2023-01-02T20:32:50.852Z,97966.88
2023-01-02T20:35:17.338Z,97961.94
2023-01-02T20:37:43.788Z,97954.97
2023-01-02T20:40:10.595Z,97958.84
2023-01-02T20:42:37.043Z,97968.16
2023-01-02T20:45:04.756Z,97962.22
2023-01-02T20:47:31.266Z,97953.97
2023-01-02T20:49:57.613Z,97959.88
2023-01-02T20:52:23.966Z,97979.56
2023-01-02T20:57:21.630Z,97957.63
2023-01-02T20:59:48.043Z,97981.91
2023-01-02T21:02:14.594Z,97989.91
2023-01-02T21:04:41.080Z,97973.13
2023-01-02T21:07:07.493Z,97990.16
2023-01-02T21:09:33.936Z,97993.00
2023-01-02T21:12:00.273Z,97997.16
2023-01-02T21:14:27.174Z,97984.22
2023-01-02T21:16:54.736Z,97994.78
2023-01-02T21:19:21.235Z,98000.47
2023-01-02T21:21:47.925Z,98000.50
2023-01-02T21:24:14.308Z,97999.19
2023-01-02T21:26:40.653Z,98008.75
2023-01-02T21:29:07.031Z,98022.41
2023-01-02T21:31:33.395Z,98015.72
2023-01-02T21:33:59.770Z,98021.63
2023-01-02T21:36:26.112Z,98031.72
2023-01-02T21:38:52.471Z,98025.50
2023-01-02T21:41:37.150Z,98030.16
2023-01-02T21:44:03.597Z,98032.22
2023-01-02T21:46:29.985Z,98030.91
2023-01-02T21:48:56.455Z,98028.31
2023-01-02T21:51:26.403Z,98031.91
2023-01-02T21:53:55.516Z,98049.72
2023-01-02T21:56:21.943Z,98030.59
2023-01-02T21:58:48.347Z,98036.56
2023-01-02T22:01:14.776Z,98043.53
2023-01-02T22:03:41.279Z,98043.25
2023-01-02T22:06:07.740Z,98050.25
2023-01-02T22:08:34.099Z,98061.31
2023-01-02T22:11:20.406Z,98032.06
2023-01-02T22:13:46.763Z,98045.50
2023-01-02T22:16:13.864Z,98055.84
2023-01-02T22:18:40.249Z,98063.06
2023-01-02T22:21:06.628Z,98051.19
2023-01-02T22:23:33.211Z,98064.69
2023-01-02T22:25:59.615Z,98050.66
2023-01-02T22:28:25.986Z,98054.00
2023-01-02T22:30:52.693Z,98065.63
2023-01-02T22:33:19.162Z,98070.56
2023-01-02T22:35:45.615Z,98053.69
2023-01-02T22:38:11.990Z,98083.97
2023-01-02T22:40:38.383Z,98063.53
2023-01-02T22:43:05.909Z,98081.81
2023-01-02T22:45:47.731Z,98096.59
2023-01-02T22:48:19.348Z,98093.94
2023-01-02T22:50:47.017Z,98107.91
2023-01-02T22:53:26.418Z,98113.03
2023-01-02T22:55:53.167Z,98097.22
2023-01-02T22:58:20.078Z,98109.66
2023-01-02T23:00:47.898Z,98115.13
2023-01-02T23:03:16.086Z,98119.16
2023-01-02T23:05:43.176Z,98125.91
2023-01-02T23:08:09.717Z,98113.47
2023-01-02T23:10:36.184Z,98127.66
2023-01-02T23:13:02.818Z,98127.91
2023-01-02T23:15:29.396Z,98127.16
2023-01-02T23:18:14.154Z,98138.03
2023-01-02T23:20:40.530Z,98116.84
2023-01-02T23:23:07.480Z,98133.97
2023-01-02T23:25:33.880Z,98133.41
2023-01-02T23:28:00.221Z,98131.84
2023-01-02T23:30:26.593Z,98119.91
2023-01-02T23:32:53.032Z,98143.44
2023-01-02T23:35:19.364Z,98136.63
2023-01-02T23:37:45.724Z,98146.50
2023-01-02T23:40:12.480Z,98142.38
2023-01-02T23:42:38.877Z,98128.59
2023-01-02T23:45:05.568Z,98133.97
2023-01-02T23:47:32.044Z,98135.28
2023-01-02T23:49:58.409Z,98140.44
2023-01-02T23:52:24.772Z,98142.00
2023-01-02T23:54:51.152Z,98122.88
2023-01-02T23:57:17.518Z,98142.00
2023-01-02T23:59:43.997Z,98142.00
